createdAt,value
2018-07-06T00:00:57.455Z,1010.52
2018-07-06T00:01:57.248Z,1010.58
2018-07-06T00:02:57.427Z,1010.54
2018-07-06T00:03:57.439Z,1010.57
2018-07-06T00:04:57.451Z,1010.55
2018-07-06T00:05:57.442Z,1010.54
2018-07-06T00:06:57.194Z,1010.61
2018-07-06T00:07:57.143Z,1010.57
2018-07-06T00:08:57.179Z,1010.62
2018-07-06T00:09:57.411Z,1010.61
2018-07-06T00:10:57.435Z,1010.65
2018-07-06T00:11:57.412Z,1010.65
2018-07-06T00:12:57.221Z,1010.63
2018-07-06T00:13:57.240Z,1010.67
2018-07-06T00:14:57.222Z,1010.66
2018-07-06T00:15:57.427Z,1010.68
2018-07-06T00:16:57.425Z,1010.69
2018-07-06T00:17:57.433Z,1010.66
2018-07-06T00:18:57.287Z,1010.67
2018-07-06T00:19:57.258Z,1010.67
2018-07-06T00:20:57.190Z,1010.69
2018-07-06T00:21:57.240Z,1010.70
2018-07-06T00:22:57.173Z,1010.69
2018-07-06T00:23:57.416Z,1010.69
2018-07-06T00:24:57.417Z,1010.69
2018-07-06T00:25:57.287Z,1010.70
2018-07-06T00:26:57.219Z,1010.64
2018-07-06T00:27:57.218Z,1010.69
2018-07-06T00:28:57.215Z,1010.68
2018-07-06T00:29:57.218Z,1010.66
2018-07-06T00:30:57.220Z,1010.66
2018-07-06T00:31:57.244Z,1010.63
2018-07-06T00:32:57.211Z,1010.64
2018-07-06T00:33:57.272Z,1010.62
2018-07-06T00:34:57.207Z,1010.63
2018-07-06T00:35:57.227Z,1010.60
2018-07-06T00:36:57.194Z,1010.61
2018-07-06T00:37:57.174Z,1010.60
2018-07-06T00:38:57.191Z,1010.58
2018-07-06T00:39:57.173Z,1010.61
2018-07-06T00:40:57.191Z,1010.62
2018-07-06T00:41:57.208Z,1010.61
2018-07-06T00:42:57.166Z,1010.63
2018-07-06T00:43:57.438Z,1010.62
2018-07-06T00:44:57.442Z,1010.60
2018-07-06T00:45:57.287Z,1010.62
2018-07-06T00:46:57.445Z,1010.63
2018-07-06T00:47:57.411Z,1010.70
2018-07-06T00:48:57.465Z,1010.67
2018-07-06T00:49:57.223Z,1010.68
2018-07-06T00:50:57.228Z,1010.67
2018-07-06T00:51:57.270Z,1010.65
2018-07-06T00:52:57.255Z,1010.61
2018-07-06T00:53:57.254Z,1010.63
2018-07-06T00:54:57.430Z,1010.63
2018-07-06T00:55:57.248Z,1010.63
2018-07-06T00:56:57.248Z,1010.63
2018-07-06T00:57:57.755Z,1010.67
2018-07-06T00:58:57.209Z,1010.67
2018-07-06T00:59:57.239Z,1010.68
2018-07-06T01:00:57.205Z,1010.69
2018-07-06T01:01:57.248Z,1010.71
2018-07-06T01:02:57.453Z,1010.70
2018-07-06T01:03:57.239Z,1010.73
2018-07-06T01:04:57.236Z,1010.75
2018-07-06T01:05:57.457Z,1010.75
2018-07-06T01:06:57.172Z,1010.78
2018-07-06T01:07:57.118Z,1010.78
2018-07-06T01:08:57.164Z,1010.75
2018-07-06T01:09:57.170Z,1010.78
2018-07-06T01:10:57.159Z,1010.77
2018-07-06T01:11:57.186Z,1010.80
2018-07-06T01:12:57.160Z,1010.81
2018-07-06T01:13:57.156Z,1010.80
2018-07-06T01:14:57.202Z,1010.86
2018-07-06T01:15:57.917Z,1010.86
2018-07-06T01:16:57.233Z,1010.86
2018-07-06T01:17:57.217Z,1010.89
2018-07-06T01:18:57.184Z,1010.90
2018-07-06T01:19:57.461Z,1010.90
2018-07-06T01:20:57.430Z,1010.92
2018-07-06T01:21:57.243Z,1010.90
2018-07-06T01:22:57.197Z,1010.93
2018-07-06T01:23:57.452Z,1010.93
2018-07-06T01:24:57.450Z,1010.90
2018-07-06T01:25:57.460Z,1010.92
2018-07-06T01:26:57.451Z,1010.90
2018-07-06T01:27:57.236Z,1010.92
2018-07-06T01:28:57.463Z,1010.92
2018-07-06T01:29:57.293Z,1010.98
2018-07-06T01:30:57.459Z,1010.96
2018-07-06T01:31:57.454Z,1010.95
2018-07-06T01:32:57.240Z,1011.00
2018-07-06T01:33:57.251Z,1010.96
2018-07-06T01:34:57.272Z,1010.97
2018-07-06T01:35:57.308Z,1011.01
2018-07-06T01:36:57.347Z,1011.01
2018-07-06T01:37:57.373Z,1011.03
2018-07-06T01:38:57.403Z,1011.05
2018-07-06T01:39:57.215Z,1011.03
2018-07-06T01:40:57.483Z,1011.03
2018-07-06T01:41:57.324Z,1011.09
2018-07-06T01:42:57.364Z,1011.07
2018-07-06T01:43:57.175Z,1011.05
2018-07-06T01:44:57.440Z,1011.03
2018-07-06T01:45:57.158Z,1011.04
2018-07-06T01:46:56.939Z,1011.03
2018-07-06T01:47:57.155Z,1011.03
2018-07-06T01:48:57.220Z,1011.03
2018-07-06T01:49:57.227Z,1011.05
2018-07-06T01:50:57.286Z,1011.03
2018-07-06T01:51:57.300Z,1011.03
2018-07-06T01:52:57.539Z,1011.04
2018-07-06T01:53:57.231Z,1011.03
2018-07-06T01:54:57.212Z,1011.03
2018-07-06T01:55:57.231Z,1011.04
2018-07-06T01:56:57.463Z,1011.10
2018-07-06T01:57:57.534Z,1011.10
2018-07-06T01:58:56.943Z,1011.06
2018-07-06T01:59:57.490Z,1011.07
2018-07-06T02:00:57.466Z,1011.06
2018-07-06T02:01:57.461Z,1011.06
2018-07-06T02:02:57.811Z,1011.03
2018-07-06T02:03:56.885Z,1011.04
2018-07-06T02:04:57.236Z,1011.01
2018-07-06T02:05:57.640Z,1011.03
2018-07-06T02:06:57.472Z,1011.01
2018-07-06T02:07:57.471Z,1011.02
2018-07-06T02:08:57.257Z,1010.98
2018-07-06T02:09:57.273Z,1010.95
2018-07-06T02:10:57.474Z,1011.00
2018-07-06T02:11:57.267Z,1011.02
2018-07-06T02:12:57.447Z,1011.02
2018-07-06T02:13:57.497Z,1011.00
2018-07-06T02:14:57.456Z,1010.96
2018-07-06T02:15:57.480Z,1011.00
2018-07-06T02:16:57.457Z,1010.96
2018-07-06T02:17:57.249Z,1010.98
2018-07-06T02:18:57.494Z,1010.96
2018-07-06T02:19:57.256Z,1010.95
2018-07-06T02:20:57.470Z,1010.95
2018-07-06T02:21:57.458Z,1010.91
2018-07-06T02:22:56.876Z,1010.91
2018-07-06T02:23:57.453Z,1010.93
2018-07-06T02:24:57.491Z,1010.95
2018-07-06T02:25:57.475Z,1010.94
2018-07-06T02:26:57.476Z,1010.92
2018-07-06T02:27:57.257Z,1010.89
2018-07-06T02:28:57.263Z,1010.84
2018-07-06T02:29:57.476Z,1010.85
2018-07-06T02:30:57.478Z,1010.85
2018-07-06T02:31:57.480Z,1010.87
2018-07-06T02:32:56.957Z,1010.81
2018-07-06T02:33:57.475Z,1010.82
2018-07-06T02:34:57.328Z,1010.88
2018-07-06T02:35:57.301Z,1010.90
2018-07-06T02:36:56.887Z,1010.90
2018-07-06T02:37:57.319Z,1010.93
2018-07-06T02:38:57.505Z,1010.96
2018-07-06T02:39:57.503Z,1010.91
2018-07-06T02:40:57.328Z,1010.90
2018-07-06T02:41:57.466Z,1010.84
2018-07-06T02:42:57.496Z,1010.88
2018-07-06T02:43:57.467Z,1010.91
2018-07-06T02:44:57.312Z,1010.92
2018-07-06T02:45:57.502Z,1010.88
2018-07-06T02:46:55.864Z,1010.91
2018-07-06T02:47:57.483Z,1010.89
2018-07-06T02:48:57.260Z,1010.89
2018-07-06T02:49:57.480Z,1010.88
2018-07-06T02:50:57.479Z,1010.92
2018-07-06T02:51:57.255Z,1010.88
2018-07-06T02:52:57.481Z,1010.92
2018-07-06T02:53:57.498Z,1010.91
2018-07-06T02:54:57.313Z,1010.90
2018-07-06T02:55:57.473Z,1010.95
2018-07-06T02:56:57.302Z,1010.92
2018-07-06T02:57:57.324Z,1010.91
2018-07-06T02:58:57.463Z,1010.91
2018-07-06T02:59:57.802Z,1010.91
2018-07-06T03:00:57.308Z,1010.93
2018-07-06T03:01:57.221Z,1010.98
2018-07-06T03:02:57.375Z,1010.95
2018-07-06T03:03:57.367Z,1011.01
2018-07-06T03:04:57.392Z,1011.04
2018-07-06T03:05:58.999Z,1011.02
2018-07-06T03:06:57.358Z,1011.01
2018-07-06T03:07:57.359Z,1011.02
2018-07-06T03:08:57.966Z,1011.06
2018-07-06T03:09:57.430Z,1011.08
2018-07-06T03:10:57.403Z,1011.08
2018-07-06T03:11:57.335Z,1011.12
2018-07-06T03:12:57.388Z,1011.07
2018-07-06T03:13:57.816Z,1011.11
2018-07-06T03:14:57.514Z,1011.09
2018-07-06T03:15:57.249Z,1011.05
2018-07-06T03:16:57.246Z,1011.06
2018-07-06T03:17:57.494Z,1011.05
2018-07-06T03:18:57.489Z,1011.06
2018-07-06T03:19:57.333Z,1011.09
2018-07-06T03:20:57.496Z,1011.06
2018-07-06T03:21:57.390Z,1011.06
2018-07-06T03:22:57.516Z,1011.09
2018-07-06T03:23:57.498Z,1011.11
2018-07-06T03:24:57.473Z,1011.09
2018-07-06T03:25:57.476Z,1011.08
2018-07-06T03:26:57.342Z,1011.10
2018-07-06T03:27:57.619Z,1011.12
2018-07-06T03:28:57.477Z,1011.08
2018-07-06T03:29:57.402Z,1011.09
2018-07-06T03:30:57.481Z,1011.12
2018-07-06T03:31:57.521Z,1011.08
2018-07-06T03:32:57.314Z,1011.11
2018-07-06T03:33:57.274Z,1011.12
2018-07-06T03:34:57.265Z,1011.13
2018-07-06T03:35:57.295Z,1011.11
2018-07-06T03:36:57.239Z,1011.13
2018-07-06T03:37:57.497Z,1011.21
2018-07-06T03:38:58.949Z,1011.17
2018-07-06T03:39:57.258Z,1011.21
2018-07-06T03:40:57.506Z,1011.25
2018-07-06T03:41:57.273Z,1011.25
2018-07-06T03:42:57.497Z,1011.27
2018-07-06T03:43:57.476Z,1011.29
2018-07-06T03:44:57.489Z,1011.32
2018-07-06T03:45:57.487Z,1011.33
2018-07-06T03:46:57.259Z,1011.31
2018-07-06T03:47:57.504Z,1011.34
2018-07-06T03:48:57.855Z,1011.31
2018-07-06T03:49:56.989Z,1011.34
2018-07-06T03:50:57.310Z,1011.35
2018-07-06T03:51:57.284Z,1011.35
2018-07-06T03:53:03.547Z,1011.37
2018-07-06T03:54:03.313Z,1011.39
2018-07-06T03:54:57.601Z,1011.38
2018-07-06T03:55:57.316Z,1011.45
2018-07-06T03:56:57.913Z,1011.44
2018-07-06T03:57:57.330Z,1011.46
2018-07-06T03:58:57.483Z,1011.45
2018-07-06T03:59:57.280Z,1011.48
2018-07-06T04:00:57.540Z,1011.52
2018-07-06T04:01:57.489Z,1011.51
2018-07-06T04:02:57.588Z,1011.51
2018-07-06T04:03:56.988Z,1011.48
2018-07-06T04:04:57.342Z,1011.48
2018-07-06T04:05:57.805Z,1011.51
2018-07-06T04:06:57.482Z,1011.55
2018-07-06T04:07:57.241Z,1011.51
2018-07-06T04:08:57.325Z,1011.54
2018-07-06T04:09:57.490Z,1011.50
2018-07-06T04:10:57.490Z,1011.51
2018-07-06T04:11:57.486Z,1011.52
2018-07-06T04:12:57.827Z,1011.51
2018-07-06T04:13:57.545Z,1011.54
2018-07-06T04:14:57.229Z,1011.55
2018-07-06T04:15:57.832Z,1011.53
2018-07-06T04:16:57.507Z,1011.54
2018-07-06T04:17:57.511Z,1011.57
2018-07-06T04:18:57.825Z,1011.56
2018-07-06T04:19:57.492Z,1011.58
2018-07-06T04:20:57.288Z,1011.63
2018-07-06T04:21:57.503Z,1011.59
2018-07-06T04:22:57.410Z,1011.64
2018-07-06T04:23:57.968Z,1011.61
2018-07-06T04:24:57.496Z,1011.64
2018-07-06T04:26:12.180Z,1011.63
2018-07-06T04:26:57.273Z,1011.59
2018-07-06T04:27:57.313Z,1011.62
2018-07-06T04:28:57.497Z,1011.64
2018-07-06T04:29:57.516Z,1011.59
2018-07-06T04:30:57.608Z,1011.65
2018-07-06T04:31:57.548Z,1011.62
2018-07-06T04:32:57.316Z,1011.64
2018-07-06T04:33:57.567Z,1011.63
2018-07-06T04:34:56.944Z,1011.63
2018-07-06T04:35:57.322Z,1011.66
2018-07-06T04:36:57.500Z,1011.69
2018-07-06T04:37:57.332Z,1011.70
2018-07-06T04:38:57.318Z,1011.74
2018-07-06T04:39:57.521Z,1011.69
2018-07-06T04:40:57.850Z,1011.73
2018-07-06T04:41:57.500Z,1011.75
2018-07-06T04:42:59.165Z,1011.72
2018-07-06T04:44:58.042Z,1011.71
2018-07-06T04:45:57.282Z,1011.74
2018-07-06T04:46:57.606Z,1011.81
2018-07-06T04:47:57.541Z,1011.79
2018-07-06T04:48:57.502Z,1011.76
2018-07-06T04:49:57.520Z,1011.75
2018-07-06T04:50:57.565Z,1011.81
2018-07-06T04:51:57.257Z,1011.79
2018-07-06T04:52:57.556Z,1011.81
2018-07-06T04:53:57.595Z,1011.80
2018-07-06T04:54:57.261Z,1011.83
2018-07-06T04:55:57.592Z,1011.86
2018-07-06T04:56:57.252Z,1011.83
2018-07-06T04:57:57.337Z,1011.85
2018-07-06T04:58:56.953Z,1011.85
2018-07-06T04:59:57.609Z,1011.83
2018-07-06T05:00:57.605Z,1011.87
2018-07-06T05:01:57.520Z,1011.86
2018-07-06T05:02:57.861Z,1011.86
2018-07-06T05:03:57.533Z,1011.86
2018-07-06T05:04:57.346Z,1011.89
2018-07-06T05:05:57.510Z,1011.91
2018-07-06T05:06:57.611Z,1011.87
2018-07-06T05:07:57.535Z,1011.92
2018-07-06T05:08:57.647Z,1011.95
2018-07-06T05:09:57.232Z,1011.94
2018-07-06T05:10:57.875Z,1011.94
2018-07-06T05:11:57.605Z,1011.93
2018-07-06T05:12:57.255Z,1011.98
2018-07-06T05:13:57.935Z,1011.95
2018-07-06T05:14:57.533Z,1012.02
2018-07-06T05:15:57.608Z,1012.02
2018-07-06T05:16:56.991Z,1012.02
2018-07-06T05:17:57.555Z,1012.01
2018-07-06T05:18:57.384Z,1011.99
2018-07-06T05:19:57.329Z,1012.01
2018-07-06T05:20:57.442Z,1012.02
2018-07-06T05:21:57.876Z,1012.02
2018-07-06T05:22:57.513Z,1012.05
2018-07-06T05:23:57.569Z,1012.03
2018-07-06T05:24:57.310Z,1012.01
2018-07-06T05:25:57.310Z,1012.02
2018-07-06T05:26:57.542Z,1011.98
2018-07-06T05:27:57.565Z,1012.02
2018-07-06T05:28:58.018Z,1012.03
2018-07-06T05:29:57.587Z,1012.04
2018-07-06T05:30:57.287Z,1012.04
2018-07-06T05:31:57.579Z,1012.02
2018-07-06T05:32:57.039Z,1012.00
2018-07-06T05:33:57.590Z,1012.01
2018-07-06T05:34:57.648Z,1012.01
2018-07-06T05:35:57.516Z,1012.05
2018-07-06T05:36:57.022Z,1012.04
2018-07-06T05:37:57.594Z,1012.07
2018-07-06T05:38:57.604Z,1012.11
2018-07-06T05:39:57.642Z,1012.12
2018-07-06T05:40:57.522Z,1012.11
2018-07-06T05:41:57.990Z,1012.15
2018-07-06T05:42:58.057Z,1012.09
2018-07-06T05:43:57.024Z,1012.10
2018-07-06T05:44:57.348Z,1012.10
2018-07-06T05:45:57.963Z,1012.12
2018-07-06T05:46:57.539Z,1012.15
2018-07-06T05:47:57.924Z,1012.21
2018-07-06T05:48:57.561Z,1012.17
2018-07-06T05:49:57.601Z,1012.20
2018-07-06T05:50:57.526Z,1012.20
2018-07-06T05:51:57.595Z,1012.22
2018-07-06T05:52:57.884Z,1012.20
2018-07-06T05:53:57.554Z,1012.24
2018-07-06T05:54:58.126Z,1012.26
2018-07-06T05:55:57.286Z,1012.29
2018-07-06T05:56:57.344Z,1012.33
2018-07-06T05:57:57.528Z,1012.26
2018-07-06T05:58:57.525Z,1012.26
2018-07-06T05:59:59.583Z,1012.25
2018-07-06T06:00:57.614Z,1012.27
2018-07-06T06:01:58.526Z,1012.24
2018-07-06T06:02:57.632Z,1012.20
2018-07-06T06:03:57.478Z,1012.26
2018-07-06T06:04:57.567Z,1012.26
2018-07-06T06:05:57.570Z,1012.23
2018-07-06T06:06:57.524Z,1012.25
2018-07-06T06:08:04.081Z,1012.25
2018-07-06T06:08:57.569Z,1012.23
2018-07-06T06:09:57.577Z,1012.23
2018-07-06T06:10:57.255Z,1012.23
2018-07-06T06:11:57.528Z,1012.22
2018-07-06T06:12:57.624Z,1012.21
2018-07-06T06:13:58.034Z,1012.22
2018-07-06T06:14:57.534Z,1012.24
2018-07-06T06:15:57.667Z,1012.20
2018-07-06T06:16:57.551Z,1012.21
2018-07-06T06:17:57.387Z,1012.18
2018-07-06T06:18:57.404Z,1012.24
2018-07-06T06:19:57.583Z,1012.27
2018-07-06T06:20:57.308Z,1012.27
2018-07-06T06:21:57.991Z,1012.26
2018-07-06T06:22:57.034Z,1012.29
2018-07-06T06:23:57.891Z,1012.31
2018-07-06T06:24:57.334Z,1012.29
2018-07-06T06:25:57.930Z,1012.29
2018-07-06T06:26:56.949Z,1012.31
2018-07-06T06:27:57.612Z,1012.35
2018-07-06T06:28:59.185Z,1012.33
2018-07-06T06:29:57.395Z,1012.40
2018-07-06T06:30:57.608Z,1012.37
2018-07-06T06:31:59.202Z,1012.38
2018-07-06T06:32:57.665Z,1012.37
2018-07-06T06:33:58.116Z,1012.42
2018-07-06T06:34:57.628Z,1012.40
2018-07-06T06:35:57.385Z,1012.45
2018-07-06T06:36:57.370Z,1012.49
2018-07-06T06:37:57.893Z,1012.43
2018-07-06T06:38:57.551Z,1012.47
2018-07-06T06:39:58.105Z,1012.49
2018-07-06T06:40:57.905Z,1012.49
2018-07-06T06:41:57.944Z,1012.51
2018-07-06T06:42:58.059Z,1012.50
2018-07-06T06:43:57.538Z,1012.52
2018-07-06T06:44:57.545Z,1012.50
2018-07-06T06:45:57.603Z,1012.54
2018-07-06T06:46:57.365Z,1012.51
2018-07-06T06:47:57.805Z,1012.56
2018-07-06T06:48:57.678Z,1012.53
2018-07-06T06:49:57.927Z,1012.56
2018-07-06T06:50:57.566Z,1012.60
2018-07-06T06:51:57.959Z,1012.67
2018-07-06T06:52:57.543Z,1012.68
2018-07-06T06:53:58.228Z,1012.64
2018-07-06T06:54:57.958Z,1012.65
2018-07-06T06:55:57.499Z,1012.64
2018-07-06T06:56:57.171Z,1012.71
2018-07-06T06:57:58.081Z,1012.70
2018-07-06T06:58:57.645Z,1012.67
2018-07-06T06:59:57.075Z,1012.67
2018-07-06T07:00:57.388Z,1012.68
2018-07-06T07:01:57.786Z,1012.64
2018-07-06T07:02:57.595Z,1012.61
2018-07-06T07:03:57.603Z,1012.68
2018-07-06T07:04:57.596Z,1012.68
2018-07-06T07:05:57.584Z,1012.65
2018-07-06T07:06:57.545Z,1012.63
2018-07-06T07:07:57.903Z,1012.67
2018-07-06T07:08:57.599Z,1012.68
2018-07-06T07:09:57.350Z,1012.70
2018-07-06T07:10:57.556Z,1012.70
2018-07-06T07:11:59.577Z,1012.73
2018-07-06T07:12:57.595Z,1012.72
2018-07-06T07:13:57.686Z,1012.77
2018-07-06T07:14:57.568Z,1012.75
2018-07-06T07:15:57.941Z,1012.80
2018-07-06T07:16:57.535Z,1012.81
2018-07-06T07:17:57.379Z,1012.79
2018-07-06T07:18:57.345Z,1012.82
2018-07-06T07:19:57.574Z,1012.84
2018-07-06T07:20:57.561Z,1012.91
2018-07-06T07:21:57.552Z,1012.90
2018-07-06T07:22:57.557Z,1012.93
2018-07-06T07:23:57.438Z,1012.89
2018-07-06T07:24:57.556Z,1012.97
2018-07-06T07:25:57.947Z,1012.94
2018-07-06T07:26:57.625Z,1013.00
2018-07-06T07:27:58.580Z,1012.98
2018-07-06T07:28:57.591Z,1013.01
2018-07-06T07:29:57.513Z,1013.00
2018-07-06T07:30:57.964Z,1013.00
2018-07-06T07:31:57.600Z,1012.93
2018-07-06T07:32:57.913Z,1012.91
2018-07-06T07:33:57.687Z,1012.95
2018-07-06T07:34:57.507Z,1012.96
2018-07-06T07:35:57.718Z,1012.94
2018-07-06T07:36:57.556Z,1012.98
2018-07-06T07:37:58.414Z,1012.95
2018-07-06T07:38:57.657Z,1012.93
2018-07-06T07:39:57.683Z,1012.95
2018-07-06T07:40:57.566Z,1012.96
2018-07-06T07:41:57.636Z,1012.98
2018-07-06T07:42:57.930Z,1012.94
2018-07-06T07:43:57.573Z,1012.96
2018-07-06T07:44:57.323Z,1012.93
2018-07-06T07:45:57.606Z,1012.92
2018-07-06T07:46:57.498Z,1012.94
2018-07-06T07:47:57.627Z,1012.93
2018-07-06T07:48:57.544Z,1012.98
2018-07-06T07:49:57.648Z,1012.96
2018-07-06T07:50:57.084Z,1012.93
2018-07-06T07:51:57.568Z,1012.94
2018-07-06T07:52:57.118Z,1012.96
2018-07-06T07:53:57.572Z,1012.99
2018-07-06T07:54:57.630Z,1012.96
2018-07-06T07:55:58.060Z,1012.99
2018-07-06T07:56:57.572Z,1013.02
2018-07-06T07:57:57.989Z,1013.01
2018-07-06T07:58:58.280Z,1012.98
2018-07-06T07:59:57.623Z,1012.98
2018-07-06T08:00:58.183Z,1012.99
2018-07-06T08:01:58.136Z,1013.00
2018-07-06T08:02:59.770Z,1013.00
2018-07-06T08:03:57.942Z,1012.97
2018-07-06T08:04:57.615Z,1013.03
2018-07-06T08:05:57.712Z,1013.01
2018-07-06T08:06:57.673Z,1013.00
2018-07-06T08:07:57.957Z,1012.97
2018-07-06T08:08:57.573Z,1012.98
2018-07-06T08:09:58.013Z,1013.01
2018-07-06T08:10:57.524Z,1013.02
2018-07-06T08:11:57.565Z,1013.03
2018-07-06T08:12:58.021Z,1013.02
2018-07-06T08:13:57.642Z,1013.04
2018-07-06T08:14:57.985Z,1013.02
2018-07-06T08:15:57.580Z,1013.04
2018-07-06T08:16:57.953Z,1013.07
2018-07-06T08:17:57.925Z,1013.09
2018-07-06T08:19:01.520Z,1013.08
2018-07-06T08:19:57.662Z,1013.08
2018-07-06T08:20:57.697Z,1013.07
2018-07-06T08:21:57.583Z,1013.10
2018-07-06T08:22:57.201Z,1013.06
2018-07-06T08:23:57.988Z,1013.03
2018-07-06T08:24:57.675Z,1013.04
2018-07-06T08:25:58.020Z,1013.00
2018-07-06T08:26:57.688Z,1012.99
2018-07-06T08:27:57.567Z,1013.02
2018-07-06T08:28:57.669Z,1013.00
2018-07-06T08:29:57.917Z,1013.02
2018-07-06T08:30:57.320Z,1013.08
2018-07-06T08:31:57.589Z,1013.06
2018-07-06T08:32:57.986Z,1013.10
2018-07-06T08:33:57.656Z,1013.12
2018-07-06T08:34:57.574Z,1013.12
2018-07-06T08:35:58.044Z,1013.13
2018-07-06T08:36:57.683Z,1013.10
2018-07-06T08:37:57.643Z,1013.14
2018-07-06T08:38:57.627Z,1013.09
2018-07-06T08:39:57.913Z,1013.10
2018-07-06T08:40:57.961Z,1013.11
2018-07-06T08:41:58.025Z,1013.12
2018-07-06T08:42:57.634Z,1013.09
2018-07-06T08:43:58.311Z,1013.06
2018-07-06T08:44:58.067Z,1013.05
2018-07-06T08:45:57.210Z,1013.05
2018-07-06T08:47:00.195Z,1013.00
2018-07-06T08:47:57.684Z,1013.02
2018-07-06T08:48:57.668Z,1013.11
2018-07-06T08:49:58.130Z,1013.04
2018-07-06T08:50:57.627Z,1013.03
2018-07-06T08:51:57.638Z,1013.07
2018-07-06T08:52:58.039Z,1013.04
2018-07-06T08:53:57.592Z,1013.10
2018-07-06T08:54:58.072Z,1013.08
2018-07-06T08:55:57.649Z,1013.11
2018-07-06T08:56:57.591Z,1013.09
2018-07-06T08:57:58.274Z,1013.13
2018-07-06T08:58:58.087Z,1013.11
2018-07-06T08:59:57.727Z,1013.17
2018-07-06T09:00:58.142Z,1013.17
2018-07-06T09:01:57.723Z,1013.15
2018-07-06T09:02:57.685Z,1013.16
2018-07-06T09:03:58.189Z,1013.15
2018-07-06T09:04:57.605Z,1013.18
2018-07-06T09:05:57.987Z,1013.15
2018-07-06T09:06:57.595Z,1013.15
2018-07-06T09:07:59.964Z,1013.13
2018-07-06T09:08:58.406Z,1013.11
2018-07-06T09:09:57.700Z,1013.11
2018-07-06T09:10:58.153Z,1013.11
2018-07-06T09:11:58.049Z,1013.16
2018-07-06T09:12:59.162Z,1013.15
2018-07-06T09:13:57.581Z,1013.16
2018-07-06T09:14:57.678Z,1013.18
2018-07-06T09:15:58.081Z,1013.21
2018-07-06T09:16:58.168Z,1013.25
2018-07-06T09:17:57.673Z,1013.25
2018-07-06T09:18:57.605Z,1013.24
2018-07-06T09:19:58.376Z,1013.28
2018-07-06T09:20:58.187Z,1013.30
2018-07-06T09:21:57.605Z,1013.31
2018-07-06T09:22:58.420Z,1013.27
2018-07-06T09:23:58.164Z,1013.31
2018-07-06T09:24:57.958Z,1013.32
2018-07-06T09:25:57.975Z,1013.31
2018-07-06T09:26:57.239Z,1013.31
2018-07-06T09:27:57.885Z,1013.27
2018-07-06T09:28:57.619Z,1013.25
2018-07-06T09:29:59.714Z,1013.35
2018-07-06T09:30:57.949Z,1013.31
2018-07-06T09:32:02.329Z,1013.26
2018-07-06T09:32:57.963Z,1013.29
2018-07-06T09:33:57.542Z,1013.25
2018-07-06T09:34:57.609Z,1013.21
2018-07-06T09:35:58.093Z,1013.26
2018-07-06T09:36:59.609Z,1013.27
2018-07-06T09:37:57.727Z,1013.28
2018-07-06T09:38:59.985Z,1013.30
2018-07-06T09:39:57.743Z,1013.26
2018-07-06T09:40:58.066Z,1013.27
2018-07-06T09:41:58.172Z,1013.25
2018-07-06T09:42:59.676Z,1013.31
2018-07-06T09:43:58.199Z,1013.32
2018-07-06T09:44:59.497Z,1013.37
2018-07-06T09:45:57.689Z,1013.37
2018-07-06T09:46:57.665Z,1013.40
2018-07-06T09:47:57.938Z,1013.36
2018-07-06T09:48:58.402Z,1013.33
2018-07-06T09:49:58.063Z,1013.31
2018-07-06T09:50:58.189Z,1013.29
2018-07-06T09:52:00.634Z,1013.28
2018-07-06T09:52:58.116Z,1013.31
2018-07-06T09:53:57.974Z,1013.33
2018-07-06T09:54:58.118Z,1013.28
2018-07-06T09:56:00.904Z,1013.25
2018-07-06T09:56:57.685Z,1013.25
2018-07-06T09:57:58.723Z,1013.31
2018-07-06T09:58:58.570Z,1013.32
2018-07-06T09:59:58.120Z,1013.32
2018-07-06T10:00:58.486Z,1013.29
2018-07-06T10:01:59.120Z,1013.29
2018-07-06T10:02:58.508Z,1013.34
2018-07-06T10:03:57.932Z,1013.34
2018-07-06T10:04:56.269Z,1013.32
2018-07-06T10:05:58.231Z,1013.27
2018-07-06T10:06:58.161Z,1013.26
2018-07-06T10:07:58.195Z,1013.31
2018-07-06T10:08:58.121Z,1013.29
2018-07-06T10:09:58.465Z,1013.28
2018-07-06T10:10:57.330Z,1013.25
2018-07-06T10:11:58.693Z,1013.24
2018-07-06T10:12:58.568Z,1013.26
2018-07-06T10:13:58.207Z,1013.29
2018-07-06T10:14:58.607Z,1013.28
2018-07-06T10:15:58.501Z,1013.26
2018-07-06T10:16:58.485Z,1013.27
2018-07-06T10:17:58.129Z,1013.28
2018-07-06T10:18:58.204Z,1013.25
2018-07-06T10:19:58.488Z,1013.25
2018-07-06T10:20:58.178Z,1013.26
2018-07-06T10:21:58.408Z,1013.23
2018-07-06T10:22:58.193Z,1013.26
2018-07-06T10:23:58.513Z,1013.19
2018-07-06T10:24:58.254Z,1013.22
2018-07-06T10:25:58.016Z,1013.25
2018-07-06T10:26:58.513Z,1013.22
2018-07-06T10:27:58.165Z,1013.25
2018-07-06T10:29:00.231Z,1013.23
2018-07-06T10:29:57.880Z,1013.19
2018-07-06T10:30:58.568Z,1013.22
2018-07-06T10:32:00.604Z,1013.21
2018-07-06T10:32:58.102Z,1013.24
2018-07-06T10:33:57.760Z,1013.12
2018-07-06T10:34:58.059Z,1013.16
2018-07-06T10:35:58.495Z,1013.19
2018-07-06T10:36:58.134Z,1013.23
2018-07-06T10:37:58.889Z,1013.24
2018-07-06T10:38:58.126Z,1013.25
2018-07-06T10:39:58.700Z,1013.26
2018-07-06T10:40:58.790Z,1013.22
2018-07-06T10:41:58.160Z,1013.21
2018-07-06T10:42:58.199Z,1013.27
2018-07-06T10:43:59.124Z,1013.19
2018-07-06T10:44:57.572Z,1013.25
2018-07-06T10:45:58.266Z,1013.29
2018-07-06T10:46:58.181Z,1013.26
2018-07-06T10:47:58.004Z,1013.28
2018-07-06T10:48:57.927Z,1013.27
2018-07-06T10:49:56.386Z,1013.22
2018-07-06T10:50:58.244Z,1013.24
2018-07-06T10:51:58.140Z,1013.26
2018-07-06T10:52:58.144Z,1013.25
2018-07-06T10:53:58.500Z,1013.23
2018-07-06T10:54:58.663Z,1013.36
2018-07-06T10:55:58.239Z,1013.29
2018-07-06T10:56:58.277Z,1013.28
2018-07-06T10:57:58.310Z,1013.29
2018-07-06T10:58:59.843Z,1013.31
2018-07-06T10:59:58.170Z,1013.34
2018-07-06T11:00:58.221Z,1013.41
2018-07-06T11:01:58.582Z,1013.35
2018-07-06T11:02:58.566Z,1013.31
2018-07-06T11:03:58.522Z,1013.41
2018-07-06T11:04:58.250Z,1013.38
2018-07-06T11:05:58.251Z,1013.38
2018-07-06T11:06:58.197Z,1013.26
2018-07-06T11:08:00.239Z,1013.26
2018-07-06T11:09:00.300Z,1013.28
2018-07-06T11:09:58.241Z,1013.29
2018-07-06T11:10:58.211Z,1013.32
2018-07-06T11:11:58.180Z,1013.36
2018-07-06T11:12:58.152Z,1013.35
2018-07-06T11:13:58.159Z,1013.36
2018-07-06T11:14:58.150Z,1013.33
2018-07-06T11:15:58.201Z,1013.31
2018-07-06T11:16:58.620Z,1013.32
2018-07-06T11:17:58.529Z,1013.26
2018-07-06T11:18:58.211Z,1013.25
2018-07-06T11:19:58.014Z,1013.28
2018-07-06T11:20:58.203Z,1013.33
2018-07-06T11:21:58.295Z,1013.30
2018-07-06T11:22:58.352Z,1013.32
2018-07-06T11:23:57.652Z,1013.34
2018-07-06T11:24:58.668Z,1013.37
2018-07-06T11:25:58.151Z,1013.26
2018-07-06T11:26:57.994Z,1013.25
2018-07-06T11:27:58.154Z,1013.23
2018-07-06T11:28:58.238Z,1013.21
2018-07-06T11:29:58.024Z,1013.23
2018-07-06T11:30:58.059Z,1013.27
2018-07-06T11:31:58.114Z,1013.24
2018-07-06T11:32:57.909Z,1013.27
2018-07-06T11:33:58.005Z,1013.32
2018-07-06T11:34:57.938Z,1013.26
2018-07-06T11:35:58.519Z,1013.31
2018-07-06T11:36:58.531Z,1013.25
2018-07-06T11:37:57.992Z,1013.26
2018-07-06T11:38:57.662Z,1013.36
2018-07-06T11:39:58.377Z,1013.35
2018-07-06T11:40:58.020Z,1013.31
2018-07-06T11:41:58.218Z,1013.36
2018-07-06T11:42:59.950Z,1013.30
2018-07-06T11:43:58.561Z,1013.32
2018-07-06T11:44:58.906Z,1013.32
2018-07-06T11:45:58.508Z,1013.35
2018-07-06T11:46:58.426Z,1013.31
2018-07-06T11:47:58.569Z,1013.31
2018-07-06T11:48:58.489Z,1013.31
2018-07-06T11:49:58.213Z,1013.36
2018-07-06T11:50:58.165Z,1013.35
2018-07-06T11:51:58.270Z,1013.36
2018-07-06T11:52:57.592Z,1013.36
2018-07-06T11:53:57.530Z,1013.40
2018-07-06T11:54:57.910Z,1013.28
2018-07-06T11:55:58.210Z,1013.39
2018-07-06T11:56:57.668Z,1013.40
2018-07-06T11:57:58.169Z,1013.32
2018-07-06T11:58:57.987Z,1013.43
2018-07-06T11:59:58.168Z,1013.46
2018-07-06T12:00:57.971Z,1013.48
2018-07-06T12:01:58.555Z,1013.51
2018-07-06T12:02:58.268Z,1013.41
2018-07-06T12:03:58.207Z,1013.42
2018-07-06T12:04:58.198Z,1013.40
2018-07-06T12:05:58.676Z,1013.43
2018-07-06T12:06:58.307Z,1013.45